Time;durP1;ratioP1;P1;durP2;ratioP2;P2;SDS_P1;SDS_P2;PMS_P1;PMS_P2;Temp;Humidity;BMP_temperature;BMP_pressure;BME280_temperature;BME280_humidity;BME280_pressure;Samples;Min_cycle;Max_cycle;Signal;HPM_P1;HPM_P2
2022/12/14 00:01:52;;;;;;;21.00;16.43;;;;;;;-3.00;86.09;95395.91;5070173;28;20227;-73
2022/12/14 00:04:17;;;;;;;20.93;17.07;;;;;;;-3.02;85.54;95397.88;5056470;28;20225;-73
2022/12/14 00:06:43;;;;;;;21.13;18.77;;;;;;;-3.09;86.27;95384.19;5074597;28;20247;-73
2022/12/14 00:09:08;;;;;;;20.67;18.20;;;;;;;-3.16;86.37;95373.03;5065202;28;20189;-73
2022/12/14 00:11:34;;;;;;;21.27;17.53;;;;;;;-3.15;86.42;95368.72;5054937;28;20224;-73
2022/12/14 00:14:01;;;;;;;22.03;16.87;;;;;;;-3.17;86.76;95371.44;5070499;28;20209;-73
2022/12/14 00:16:29;;;;;;;17.90;15.97;;;;;;;-2.94;86.80;95363.66;5073800;28;20189;-73
2022/12/14 00:18:57;;;;;;;19.43;16.73;;;;;;;-3.01;86.52;95357.69;5067617;28;20178;-73
2022/12/14 00:21:24;;;;;;;21.13;17.17;;;;;;;-3.11;86.20;95349.44;5054402;28;20592;-73
2022/12/14 00:23:50;;;;;;;18.57;15.77;;;;;;;-3.28;87.75;95341.13;5063599;28;20185;-74
2022/12/14 00:26:21;;;;;;;18.80;15.53;;;;;;;-3.22;87.87;95324.25;5070917;28;20220;-73
2022/12/14 00:28:48;;;;;;;20.47;15.80;;;;;;;-3.28;87.95;95330.09;5072973;28;20675;-73
2022/12/14 00:31:14;;;;;;;21.60;15.57;;;;;;;-3.30;88.62;95330.28;5074356;28;20185;-73
2022/12/14 00:33:39;;;;;;;17.50;13.83;;;;;;;-3.32;88.70;95324.53;5073343;28;20662;-73
2022/12/14 00:36:07;;;;;;;17.83;14.63;;;;;;;-3.35;89.07;95332.59;5054146;28;20192;-74
2022/12/14 00:38:32;;;;;;;22.93;15.77;;;;;;;-3.25;88.62;95330.56;5054991;28;20547;-73
2022/12/14 00:40:58;;;;;;;19.47;14.93;;;;;;;-3.32;89.07;95327.09;5040309;28;20194;-73
2022/12/14 00:43:23;;;;;;;19.97;15.03;;;;;;;-3.12;88.17;95317.13;5074074;28;20264;-73
2022/12/14 00:45:49;;;;;;;19.33;14.63;;;;;;;-3.06;88.10;95326.63;5073594;28;20205;-73
2022/12/14 00:48:16;;;;;;;18.23;14.83;;;;;;;-3.13;89.10;95336.03;5061164;28;20320;-73
2022/12/14 00:50:44;;;;;;;17.57;14.70;;;;;;;-3.27;89.10;95327.38;5070591;28;20189;-73
2022/12/14 00:53:09;;;;;;;19.30;14.23;;;;;;;-3.19;88.76;95318.81;5073740;28;20197;-73
2022/12/14 00:55:42;;;;;;;22.77;15.63;;;;;;;-3.12;88.52;95312.78;5073464;28;20207;-73
2022/12/14 00:58:10;;;;;;;19.27;14.37;;;;;;;-3.02;88.73;95308.19;5062320;28;20248;-73
2022/12/14 01:00:35;;;;;;;19.23;15.40;;;;;;;-3.09;89.10;95311.63;5054168;28;20233;-73
2022/12/14 01:03:01;;;;;;;17.50;14.93;;;;;;;-3.28;90.54;95320.66;5055034;28;20209;-74
2022/12/14 01:05:27;;;;;;;19.37;15.80;;;;;;;-2.99;88.68;95327.53;5053552;28;20237;-74
2022/12/14 01:07:52;;;;;;;20.73;14.80;;;;;;;-2.91;88.74;95342.03;5062392;28;20601;-74
2022/12/14 01:10:17;;;;;;;21.17;15.57;;;;;;;-2.91;88.25;95345.38;5073555;28;20523;-74
2022/12/14 01:12:43;;;;;;;17.80;15.47;;;;;;;-2.77;86.85;95352.25;5073537;28;20196;-73
2022/12/14 01:15:09;;;;;;;18.80;16.63;;;;;;;-2.73;86.58;95345.00;5056352;28;20186;-74
2022/12/14 01:17:34;;;;;;;21.70;19.40;;;;;;;-2.59;86.34;95331.34;5067313;28;20589;-74
2022/12/14 01:19:59;;;;;;;20.43;18.37;;;;;;;-2.62;86.68;95331.72;5053484;28;20269;-74
2022/12/14 01:22:25;;;;;;;19.87;17.80;;;;;;;-2.65;87.32;95325.16;5056652;28;20196;-74
2022/12/14 01:24:50;;;;;;;19.53;16.77;;;;;;;-2.80;88.03;95324.41;5055401;28;20209;-74
2022/12/14 01:27:15;;;;;;;19.53;17.20;;;;;;;-3.22;88.81;95314.81;5070823;28;20191;-74
2022/12/14 01:29:40;;;;;;;19.83;17.70;;;;;;;-2.92;88.87;95315.59;5072574;28;20181;-73
2022/12/14 01:32:06;;;;;;;20.60;17.67;;;;;;;-3.14;88.99;95304.50;5072601;28;20267;-74
2022/12/14 01:34:31;;;;;;;22.30;17.53;;;;;;;-3.27;89.65;95300.97;5073213;28;20208;-73
2022/12/14 01:36:57;;;;;;;20.43;16.47;;;;;;;-3.48;91.39;95312.72;5058201;28;20177;-73
2022/12/14 01:39:22;;;;;;;23.00;14.33;;;;;;;-3.29;91.04;95315.72;5070503;28;20181;-74
2022/12/14 01:41:51;;;;;;;17.83;15.57;;;;;;;-3.28;90.88;95323.22;5073030;28;20206;-74
2022/12/14 01:44:16;;;;;;;18.07;15.03;;;;;;;-3.22;90.13;95337.06;5072542;28;20567;-74
2022/12/14 01:46:58;;;;;;;18.43;15.53;;;;;;;-2.87;89.01;95343.25;5060297;28;20174;-74
2022/12/14 01:49:36;;;;;;;19.00;16.23;;;;;;;-2.77;88.03;95321.47;5054008;28;20186;-73
2022/12/14 01:52:29;;;;;;;17.63;14.53;;;;;;;-3.09;89.07;95325.25;5072983;28;20189;-74
2022/12/14 01:55:01;;;;;;;19.37;16.47;;;;;;;-3.14;90.40;95319.06;5072740;28;20189;-73
2022/12/14 01:57:33;;;;;;;18.80;15.07;;;;;;;-2.97;89.21;95316.13;5055260;28;20186;-74
2022/12/14 01:59:59;;;;;;;17.83;15.13;;;;;;;-3.14;90.21;95303.69;5072498;28;20588;-74
2022/12/14 02:02:27;;;;;;;20.93;16.17;;;;;;;-3.19;89.88;95295.75;5063555;28;20175;-74
2022/12/14 02:04:59;;;;;;;21.30;16.83;;;;;;;-3.20;89.94;95286.47;5068994;28;20665;-74
2022/12/14 02:07:26;;;;;;;18.03;15.63;;;;;;;-3.33;90.87;95281.97;5072809;28;20166;-73
2022/12/14 02:09:55;;;;;;;20.83;16.27;;;;;;;-3.40;91.18;95281.88;5054471;28;20209;-74
2022/12/14 02:12:30;;;;;;;24.20;16.90;;;;;;;-3.01;89.53;95280.81;5061842;28;20182;-74
2022/12/14 02:14:56;;;;;;;23.17;17.13;;;;;;;-3.17;90.79;95274.09;5052744;28;20231;-74
2022/12/14 02:17:21;;;;;;;20.80;16.57;;;;;;;-3.10;90.38;95271.59;5034826;28;20520;-74
2022/12/14 02:19:48;;;;;;;21.87;18.53;;;;;;;-3.21;91.23;95284.88;5052648;28;20184;-74
2022/12/14 02:22:28;;;;;;;23.40;19.53;;;;;;;-3.18;91.66;95280.22;5056127;28;20697;-74
2022/12/14 02:25:13;;;;;;;24.70;19.67;;;;;;;-3.25;92.73;95276.75;5059237;28;20216;-74
2022/12/14 02:27:47;;;;;;;22.33;16.57;;;;;;;-3.13;92.29;95277.09;5070549;28;20177;-74
2022/12/14 02:30:17;;;;;;;21.80;17.07;;;;;;;-3.20;92.60;95277.03;5070609;28;20189;-74
2022/12/14 02:33:03;;;;;;;21.10;16.00;;;;;;;-3.10;92.19;95277.53;5071859;28;20260;-73
2022/12/14 02:35:54;;;;;;;25.03;17.47;;;;;;;-3.19;93.33;95267.56;5072170;28;20256;-74
2022/12/14 02:38:49;;;;;;;20.57;16.73;;;;;;;-3.10;93.27;95264.72;5065714;28;20174;-73
2022/12/14 02:41:21;;;;;;;22.40;16.17;;;;;;;-2.99;92.41;95266.81;5055846;28;20717;-73
2022/12/14 02:43:54;;;;;;;21.93;15.90;;;;;;;-2.87;92.06;95269.72;5053969;28;20638;-73
2022/12/14 02:46:54;;;;;;;23.10;17.77;;;;;;;-2.94;92.47;95264.50;5072141;28;20213;-73
2022/12/14 02:49:37;;;;;;;20.17;16.97;;;;;;;-2.89;92.43;95263.16;5031400;28;20226;-73
2022/12/14 02:52:14;;;;;;;22.90;17.20;;;;;;;-2.80;92.42;95260.31;5041650;28;20181;-74
2022/12/14 02:54:53;;;;;;;25.53;17.30;;;;;;;-2.87;91.95;95256.91;5054814;28;20240;-75
2022/12/14 02:57:25;;;;;;;23.73;16.77;;;;;;;-3.10;93.82;95254.47;5054998;28;20273;-73
2022/12/14 02:59:55;;;;;;;20.17;15.93;;;;;;;-2.93;93.22;95255.06;5054779;28;20653;-73
2022/12/14 03:02:20;;;;;;;20.40;16.23;;;;;;;-2.80;92.69;95254.41;5044074;28;20187;-73
2022/12/14 03:04:49;;;;;;;21.00;16.60;;;;;;;-2.82;93.37;95253.78;5034798;28;20214;-73
2022/12/14 03:07:36;;;;;;;22.80;16.87;;;;;;;-2.93;94.14;95249.94;5034675;28;20202;-73
2022/12/14 03:10:29;;;;;;;23.60;16.17;;;;;;;-2.83;94.26;95247.06;5034915;28;20217;-73
2022/12/14 03:13:16;;;;;;;24.67;17.07;;;;;;;-2.84;93.48;95238.56;5018221;28;20659;-74
2022/12/14 03:15:46;;;;;;;20.97;15.73;;;;;;;-2.86;94.35;95237.97;5053565;28;20209;-73
2022/12/14 03:18:16;;;;;;;21.30;16.33;;;;;;;-2.73;94.78;95242.47;5036665;28;20178;-73
2022/12/14 03:20:46;;;;;;;21.63;16.73;;;;;;;-2.91;96.98;95235.19;5054305;28;20269;-73
2022/12/14 03:23:16;;;;;;;22.17;17.03;;;;;;;-2.90;97.55;95239.31;5053389;28;20190;-73
2022/12/14 03:25:46;;;;;;;25.23;16.73;;;;;;;-2.81;98.24;95230.53;5054183;28;20206;-73
2022/12/14 03:28:23;;;;;;;27.37;18.33;;;;;;;-2.89;100.00;95234.97;5046931;28;20195;-73
2022/12/14 03:30:54;;;;;;;23.67;17.37;;;;;;;-2.98;100.00;95232.53;5034508;28;20183;-73
2022/12/14 03:33:26;;;;;;;26.20;18.60;;;;;;;-2.89;100.00;95229.84;5052357;28;20712;-73
2022/12/14 03:36:18;;;;;;;23.80;18.53;;;;;;;-2.78;100.00;95234.50;5038613;28;20273;-73
2022/12/14 03:38:49;;;;;;;28.37;18.13;;;;;;;-3.15;100.00;95232.94;5036376;28;20173;-74
2022/12/14 03:41:46;;;;;;;25.00;18.93;;;;;;;-3.05;100.00;95225.75;5052137;28;20205;-74
2022/12/14 03:44:27;;;;;;;26.10;17.97;;;;;;;-2.99;100.00;95218.13;5030346;28;20229;-73
2022/12/14 04:00:09;;;;;;;23.40;19.13;;;;;;;-2.66;100.00;95189.44;5090004;28;20570;-64
2022/12/14 04:02:47;;;;;;;25.23;19.77;;;;;;;-2.77;100.00;95185.63;5077851;28;20177;-64
2022/12/14 04:05:25;;;;;;;26.77;19.13;;;;;;;-2.72;100.00;95177.38;5069381;28;20173;-64
2022/12/14 04:08:18;;;;;;;24.27;17.87;;;;;;;-2.62;100.00;95177.88;5069335;28;20409;-64
2022/12/14 04:19:52;;;;;;;23.47;17.67;;;;;;;-2.69;100.00;95157.28;5069446;28;20216;-64
2022/12/14 04:22:24;;;;;;;24.07;18.50;;;;;;;-2.79;100.00;95151.69;5076945;28;20537;-64
2022/12/14 04:29:54;;;;;;;25.03;18.13;;;;;;;-2.75;100.00;95152.09;5068852;28;20730;-65
2022/12/14 04:31:01;;;;;;;25.83;18.80;;;;;;;-2.67;100.00;95136.56;5075228;28;20271;-64
2022/12/14 04:33:46;;;;;;;27.60;19.27;;;;;;;-2.83;100.00;95142.75;5089037;28;20205;-65
2022/12/14 04:36:15;;;;;;;28.57;19.03;;;;;;;-2.90;100.00;95126.56;5087250;28;20194;-65
2022/12/14 04:38:43;;;;;;;26.30;19.60;;;;;;;-2.66;100.00;95127.91;5088767;28;20193;-64
2022/12/14 04:41:13;;;;;;;28.30;19.23;;;;;;;-2.65;100.00;95121.81;5088614;28;20627;-64
2022/12/14 04:43:44;;;;;;;25.93;19.93;;;;;;;-2.70;100.00;95129.28;5074640;28;20205;-65
2022/12/14 04:46:16;;;;;;;27.70;19.53;;;;;;;-2.79;100.00;95126.06;5085326;28;20180;-64
2022/12/14 04:48:49;;;;;;;25.30;20.03;;;;;;;-2.70;100.00;95127.50;5088907;28;20258;-65
2022/12/14 04:51:30;;;;;;;27.97;21.30;;;;;;;-2.58;100.00;95120.91;5088913;28;20194;-65
2022/12/14 04:54:03;;;;;;;29.70;21.90;;;;;;;-2.77;100.00;95133.53;5089013;28;20602;-65
2022/12/14 04:56:45;;;;;;;29.53;22.47;;;;;;;-2.73;100.00;95127.09;5086680;28;20623;-64
2022/12/14 04:59:10;;;;;;;28.97;21.17;;;;;;;-2.74;100.00;95133.19;5065213;28;20225;-65
2022/12/14 05:02:18;;;;;;;30.87;26.60;;;;;;;-2.81;100.00;95119.53;5037383;28;20178;-65
2022/12/14 05:05:00;;;;;;;26.63;21.47;;;;;;;-2.86;100.00;95114.97;5053712;28;20173;-65
2022/12/14 05:07:46;;;;;;;34.07;20.53;;;;;;;-2.72;100.00;95113.28;5035201;28;20175;-66
2022/12/14 05:10:29;;;;;;;31.77;22.30;;;;;;;-2.70;100.00;95111.31;5035260;28;20221;-65
2022/12/14 05:13:15;;;;;;;30.53;23.30;;;;;;;-2.78;100.00;95108.88;5035350;28;20208;-65
2022/12/14 05:15:48;;;;;;;28.77;21.67;;;;;;;-2.65;100.00;95096.97;5043901;28;20178;-66
2022/12/14 05:18:16;;;;;;;27.17;21.30;;;;;;;-2.59;100.00;95092.88;5039147;28;20286;-66
2022/12/14 05:20:41;;;;;;;34.37;23.20;;;;;;;-2.56;100.00;95100.19;5035744;28;20182;-64
2022/12/14 05:23:07;;;;;;;29.53;22.23;;;;;;;-2.54;100.00;95101.59;5044882;28;20557;-65
2022/12/14 05:28:09;;;;;;;28.97;19.97;;;;;;;-3.06;100.00;95108.84;5006045;23;20309;-64
2022/12/14 05:30:36;;;;;;;25.50;20.17;;;;;;;-3.07;100.00;95102.16;4994019;28;20259;-63
2022/12/14 05:33:01;;;;;;;32.67;20.93;;;;;;;-2.70;100.00;95108.75;4994509;28;20195;-63
2022/12/14 05:35:27;;;;;;;28.73;19.60;;;;;;;-2.45;100.00;95096.31;4993815;28;20642;-64
2022/12/14 05:37:52;;;;;;;25.40;21.27;;;;;;;-2.33;100.00;95085.34;4995328;28;20571;-64
2022/12/14 05:40:17;;;;;;;28.73;22.73;;;;;;;-2.31;100.00;95090.28;4993627;28;20199;-64
2022/12/14 05:42:43;;;;;;;26.43;20.83;;;;;;;-2.43;100.00;95087.44;4995231;28;20180;-64
2022/12/14 05:45:11;;;;;;;26.40;19.87;;;;;;;-2.54;100.00;95087.97;4995004;28;20198;-64
2022/12/14 05:47:36;;;;;;;27.93;19.70;;;;;;;-2.60;100.00;95086.94;4994624;28;20196;-64
2022/12/14 05:50:02;;;;;;;26.00;19.53;;;;;;;-2.60;100.00;95091.28;4994930;28;20299;-64
2022/12/14 05:52:28;;;;;;;26.63;19.57;;;;;;;-2.47;100.00;95082.88;4995147;28;20176;-65
2022/12/14 05:54:53;;;;;;;27.20;20.50;;;;;;;-2.89;100.00;95083.75;4994987;28;20322;-64
2022/12/14 05:57:19;;;;;;;28.17;20.27;;;;;;;-2.73;100.00;95074.03;4994809;28;20627;-64
2022/12/14 05:59:44;;;;;;;27.63;21.30;;;;;;;-2.57;100.00;95065.28;4994488;28;20227;-64
2022/12/14 06:02:10;;;;;;;26.97;20.70;;;;;;;-2.54;100.00;95067.47;4994660;28;20175;-64
2022/12/14 06:04:36;;;;;;;29.20;21.40;;;;;;;-2.33;100.00;95064.81;4994574;28;20183;-64
2022/12/14 06:07:01;;;;;;;33.20;22.03;;;;;;;-2.25;100.00;95044.16;4994592;28;20547;-64
2022/12/14 06:09:26;;;;;;;31.50;23.20;;;;;;;-2.36;100.00;95054.16;4994314;28;20207;-64
2022/12/14 06:11:52;;;;;;;33.47;23.53;;;;;;;-2.35;100.00;95050.59;4993403;28;20600;-64
2022/12/14 06:14:17;;;;;;;31.57;23.07;;;;;;;-2.24;100.00;95044.94;4993990;28;20188;-62
2022/12/14 06:16:44;;;;;;;28.63;22.63;;;;;;;-2.29;100.00;95053.22;4994253;28;20188;-61
2022/12/14 06:19:11;;;;;;;29.03;23.70;;;;;;;-2.36;100.00;95054.94;4994188;28;20219;-63
2022/12/14 06:21:38;;;;;;;32.63;24.83;;;;;;;-2.41;100.00;95053.94;4994101;28;20187;-62
2022/12/14 06:24:05;;;;;;;32.43;25.17;;;;;;;-2.24;100.00;95050.88;4994066;28;20176;-65
2022/12/14 06:26:32;;;;;;;33.67;24.23;;;;;;;-2.46;100.00;95046.00;4980250;28;20235;-61
2022/12/14 06:28:58;;;;;;;33.47;25.70;;;;;;;-2.35;100.00;95051.41;4974632;28;20208;-63
2022/12/14 06:31:26;;;;;;;29.90;22.37;;;;;;;-2.53;100.00;95057.00;4973535;28;20193;-62
2022/12/14 06:33:53;;;;;;;34.27;28.93;;;;;;;-2.48;100.00;95068.47;4974882;28;20476;-63
2022/12/14 06:36:22;;;;;;;47.93;43.30;;;;;;;-2.44;100.00;95067.09;4974525;28;20181;-63
2022/12/14 06:38:52;;;;;;;29.97;21.40;;;;;;;-2.44;100.00;95060.22;4974880;28;20204;-65
2022/12/14 06:41:19;;;;;;;30.50;23.10;;;;;;;-2.40;100.00;95045.25;4974234;28;20172;-64
2022/12/14 06:43:44;;;;;;;35.57;22.40;;;;;;;-2.20;100.00;95046.13;4973884;28;20187;-65
2022/12/14 06:46:12;;;;;;;32.63;22.53;;;;;;;-2.45;100.00;95045.78;4974307;28;20627;-64
2022/12/14 06:48:38;;;;;;;31.57;22.47;;;;;;;-3.16;100.00;95040.00;4974251;28;20223;-67
2022/12/14 06:51:05;;;;;;;36.50;25.17;;;;;;;-2.94;100.00;95028.75;4972428;28;20266;-63
2022/12/14 06:53:30;;;;;;;35.77;24.33;;;;;;;-3.14;100.00;95024.44;4974167;28;20164;-63
2022/12/14 06:56:11;;;;;;;34.73;24.60;;;;;;;-3.32;100.00;95029.22;4974161;28;20546;-63
2022/12/14 06:58:37;;;;;;;37.10;25.40;;;;;;;-3.12;100.00;95017.38;4965041;28;20738;-63
2022/12/14 07:01:04;;;;;;;35.80;24.40;;;;;;;-3.28;100.00;95005.63;4974240;28;20256;-63
2022/12/14 07:03:30;;;;;;;40.37;29.43;;;;;;;-3.33;100.00;95007.94;4973788;28;20181;-63
2022/12/14 07:06:00;;;;;;;40.03;24.57;;;;;;;-3.01;100.00;95004.81;4974249;28;20243;-63
2022/12/14 07:08:27;;;;;;;36.57;25.53;;;;;;;-2.89;100.00;95019.69;4974189;28;20219;-63
2022/12/14 07:10:53;;;;;;;34.40;25.23;;;;;;;-2.77;100.00;95010.50;4974149;28;20312;-65
2022/12/14 07:13:20;;;;;;;39.33;26.47;;;;;;;-2.60;100.00;95007.47;4973769;28;20271;-65
2022/12/14 07:15:56;;;;;;;39.80;26.90;;;;;;;-2.56;100.00;95010.44;4972928;28;20651;-65
2022/12/14 07:18:22;;;;;;;40.70;27.07;;;;;;;-2.58;100.00;95004.72;4973362;28;20195;-65
2022/12/14 07:21:14;;;;;;;35.63;25.30;;;;;;;-2.61;100.00;94995.63;4973593;28;20210;-64
2022/12/14 07:23:42;;;;;;;40.70;26.27;;;;;;;-2.70;100.00;94996.75;4970816;28;20247;-64
2022/12/14 07:26:17;;;;;;;39.70;26.37;;;;;;;-2.36;100.00;94995.16;4969841;28;20236;-65
2022/12/14 07:28:43;;;;;;;38.33;27.67;;;;;;;-2.22;100.00;94987.31;4973019;28;20230;-64
2022/12/14 07:31:22;;;;;;;41.27;28.73;;;;;;;-2.15;100.00;94964.25;4972743;28;20659;-63
2022/12/14 07:33:50;;;;;;;36.67;26.03;;;;;;;-2.22;100.00;94971.91;4973674;28;20177;-63
2022/12/14 07:36:18;;;;;;;40.70;28.20;;;;;;;-2.29;100.00;94976.25;4972421;28;20181;-64
2022/12/14 07:38:46;;;;;;;39.60;26.03;;;;;;;-2.47;100.00;94985.44;4973590;28;20231;-65
2022/12/14 07:41:14;;;;;;;36.63;26.17;;;;;;;-2.25;100.00;94987.69;4973746;28;20227;-65
2022/12/14 07:43:41;;;;;;;37.47;26.50;;;;;;;-2.27;100.00;94991.44;4973643;28;20173;-66
2022/12/14 07:46:09;;;;;;;35.70;26.03;;;;;;;-1.98;100.00;94978.31;4973793;28;20181;-65
2022/12/14 07:48:35;;;;;;;35.17;25.07;;;;;;;-1.84;100.00;94971.44;4973419;28;20218;-65
2022/12/14 07:51:07;;;;;;;37.20;25.60;;;;;;;-1.94;100.00;94973.56;4971601;28;20613;-66
2022/12/14 07:53:33;;;;;;;39.70;28.30;;;;;;;-1.84;100.00;94966.31;4973548;28;20172;-65
2022/12/14 07:56:12;;;;;;;37.43;26.63;;;;;;;-1.85;100.00;94957.81;4973722;28;20189;-66
2022/12/14 07:58:38;;;;;;;41.10;26.57;;;;;;;-2.02;100.00;94960.94;4973491;28;20203;-64
2022/12/14 08:01:24;;;;;;;34.87;24.53;;;;;;;-2.08;100.00;94962.50;4972638;28;20677;-64
2022/12/14 08:03:53;;;;;;;36.00;25.50;;;;;;;-1.94;100.00;94960.72;4973254;28;20196;-65
2022/12/14 08:06:21;;;;;;;34.03;24.80;;;;;;;-1.92;100.00;94958.78;4973648;28;20169;-65
2022/12/14 08:08:46;;;;;;;39.83;26.73;;;;;;;-1.79;100.00;94957.03;4973537;28;20232;-65
2022/12/14 08:11:13;;;;;;;40.40;25.17;;;;;;;-1.85;100.00;94947.53;4973358;28;20602;-64
2022/12/14 08:13:38;;;;;;;40.77;27.20;;;;;;;-1.76;100.00;94945.56;4973102;28;20184;-65
2022/12/14 08:16:09;;;;;;;42.23;32.73;;;;;;;-1.81;100.00;94950.50;4973308;28;20663;-64
2022/12/14 08:18:35;;;;;;;40.70;33.77;;;;;;;-1.52;100.00;94952.72;4972962;28;20236;-64
2022/12/14 08:21:02;;;;;;;46.40;41.37;;;;;;;-1.58;100.00;94942.44;4973190;28;20211;-65
2022/12/14 08:23:27;;;;;;;50.67;44.50;;;;;;;-1.35;100.00;94950.53;4972782;28;20655;-64
2022/12/14 08:25:54;;;;;;;38.43;28.77;;;;;;;-1.57;100.00;94944.81;4976416;28;20254;-64
2022/12/14 08:28:21;;;;;;;34.43;26.00;;;;;;;-1.61;100.00;94947.94;4991404;28;20294;-64
2022/12/14 08:30:46;;;;;;;36.60;25.33;;;;;;;-1.74;100.00;94939.28;4991949;28;20237;-64
2022/12/14 08:33:12;;;;;;;38.23;26.20;;;;;;;-1.57;100.00;94942.25;4992289;28;20199;-64
2022/12/14 08:35:37;;;;;;;38.57;29.33;;;;;;;-1.46;100.00;94946.78;4993635;28;20176;-64
2022/12/14 08:38:02;;;;;;;33.20;24.90;;;;;;;-1.60;100.00;94950.31;4996052;28;20306;-63
2022/12/14 08:40:28;;;;;;;34.37;25.37;;;;;;;-1.60;100.00;94939.25;4995952;28;20180;-75
2022/12/14 08:42:54;;;;;;;33.07;23.07;;;;;;;-1.51;100.00;94945.81;4995976;28;20176;-64
2022/12/14 08:45:20;;;;;;;32.97;23.67;;;;;;;-1.33;100.00;94951.91;4995953;28;20175;-65
2022/12/14 08:47:45;;;;;;;33.83;22.63;;;;;;;-1.24;100.00;94956.88;4995321;28;20199;-65
2022/12/14 08:50:11;;;;;;;32.97;26.60;;;;;;;-1.34;100.00;94962.41;4993612;28;20190;-65
2022/12/14 08:52:37;;;;;;;32.17;25.50;;;;;;;-1.47;100.00;94967.53;4996280;28;20250;-66
2022/12/14 08:55:04;;;;;;;31.10;24.13;;;;;;;-1.14;100.00;94959.81;4996061;28;20176;-68
2022/12/14 08:57:30;;;;;;;32.00;23.00;;;;;;;-1.54;100.00;94967.53;4989958;28;20529;-67
2022/12/14 08:59:55;;;;;;;30.43;23.27;;;;;;;-1.59;100.00;94961.41;4995702;28;20206;-67
2022/12/14 09:02:21;;;;;;;30.40;22.60;;;;;;;-1.39;100.00;94957.84;4995818;28;20169;-67
2022/12/14 09:04:46;;;;;;;37.13;24.30;;;;;;;-1.16;100.00;94967.72;4995791;28;20198;-69
2022/12/14 09:07:12;;;;;;;33.27;23.70;;;;;;;-1.18;100.00;94962.00;4995736;28;20180;-66
2022/12/14 09:09:37;;;;;;;33.27;24.90;;;;;;;-0.84;100.00;94955.84;4994536;28;20969;-66
2022/12/14 09:12:06;;;;;;;34.43;24.57;;;;;;;-0.98;100.00;94949.91;4995636;28;20650;-67
2022/12/14 09:14:35;;;;;;;34.97;23.77;;;;;;;-1.13;100.00;94954.50;4995775;28;20172;-66
2022/12/14 09:17:01;;;;;;;33.80;25.23;;;;;;;-1.28;100.00;94957.25;4995375;28;20266;-66
2022/12/14 09:19:27;;;;;;;41.63;36.77;;;;;;;-1.10;100.00;94959.22;4995241;28;20204;-67
2022/12/14 09:21:52;;;;;;;37.80;24.57;;;;;;;-1.24;100.00;94962.00;4995316;28;20188;-67
2022/12/14 09:24:19;;;;;;;37.07;25.03;;;;;;;-1.30;100.00;94950.75;4995366;28;20638;-65
2022/12/14 09:26:45;;;;;;;33.57;23.23;;;;;;;-1.23;100.00;94948.16;4965883;28;20240;-67
2022/12/14 09:29:15;;;;;;;33.50;26.63;;;;;;;-1.61;100.00;94953.88;4956190;28;20221;-66
2022/12/14 09:31:41;;;;;;;51.17;46.07;;;;;;;-2.01;100.00;94952.25;4941142;28;20212;-66
2022/12/14 09:34:06;;;;;;;37.37;24.80;;;;;;;-1.67;100.00;94946.19;4955942;29;20181;-65
2022/12/14 09:36:32;;;;;;;35.43;26.13;;;;;;;-1.42;100.00;94944.59;4955788;29;20663;-65
2022/12/14 09:38:58;;;;;;;38.57;26.20;;;;;;;-1.23;100.00;94927.63;4956538;29;20220;-65
2022/12/14 09:41:33;;;;;;;38.87;26.33;;;;;;;-1.38;100.00;94931.16;4956065;28;20667;-65
2022/12/14 09:44:17;;;;;;;39.83;27.23;;;;;;;-1.15;100.00;94928.19;4955319;29;20176;-64
2022/12/14 09:46:58;;;;;;;38.60;27.10;;;;;;;-1.19;100.00;94926.22;4955883;28;20268;-65
2022/12/14 09:49:30;;;;;;;40.97;28.27;;;;;;;-1.10;100.00;94930.16;4954097;29;20684;-65
2022/12/14 09:52:03;;;;;;;38.33;28.07;;;;;;;-1.36;100.00;94929.19;4956093;29;20173;-65
2022/12/14 09:54:35;;;;;;;36.13;26.00;;;;;;;-1.31;100.00;94937.09;4956148;28;20173;-65
2022/12/14 09:57:29;;;;;;;39.47;28.57;;;;;;;-1.26;100.00;94934.72;4954518;29;20598;-65
2022/12/14 09:59:55;;;;;;;44.37;27.73;;;;;;;-1.31;100.00;94924.25;4949755;29;20543;-66
2022/12/14 10:02:27;;;;;;;37.97;27.03;;;;;;;-1.18;100.00;94926.03;4955351;29;20180;-66
2022/12/14 10:05:32;;;;;;;39.47;27.90;;;;;;;-1.10;100.00;94925.00;4955331;29;20183;-65
2022/12/14 10:08:06;;;;;;;40.27;27.10;;;;;;;-1.15;100.00;94922.25;4954946;28;20260;-65
2022/12/14 10:10:56;;;;;;;39.80;25.37;;;;;;;-0.94;100.00;94922.81;4955844;28;20215;-64
2022/12/14 10:13:36;;;;;;;41.93;28.23;;;;;;;-1.23;100.00;94917.34;4955491;28;20189;-65
2022/12/14 10:16:29;;;;;;;35.57;26.27;;;;;;;-1.11;100.00;94921.66;4955053;28;20181;-62
2022/12/14 10:19:06;;;;;;;42.07;26.80;;;;;;;-1.00;100.00;94915.91;4955214;28;20689;-62
2022/12/14 10:21:47;;;;;;;39.70;26.70;;;;;;;-0.92;100.00;94925.97;4954956;29;20217;-62
2022/12/14 10:24:26;;;;;;;39.17;26.23;;;;;;;-1.08;100.00;94923.03;4955093;29;20188;-62
2022/12/14 10:26:54;;;;;;;40.83;27.47;;;;;;;-0.91;100.00;94919.84;4966247;28;20711;-62
2022/12/14 10:29:24;;;;;;;37.77;27.23;;;;;;;-1.08;100.00;94912.75;4974288;28;20262;-62
2022/12/14 10:32:12;;;;;;;38.63;26.50;;;;;;;-1.27;100.00;94909.22;4972436;28;20184;-61
2022/12/14 10:34:40;;;;;;;36.97;25.93;;;;;;;-1.15;100.00;94915.34;4976693;28;20256;-62
2022/12/14 10:37:21;;;;;;;40.37;28.57;;;;;;;-0.92;100.00;94914.91;4971793;28;20192;-63
2022/12/14 10:40:03;;;;;;;40.07;28.90;;;;;;;-1.05;100.00;94905.44;4973980;28;20315;-62
2022/12/14 10:42:49;;;;;;;38.47;26.93;;;;;;;-0.75;100.00;94918.63;4973599;28;20196;-62
2022/12/14 10:45:37;;;;;;;38.90;26.83;;;;;;;-0.79;100.00;94904.59;4965611;28;20258;-65
2022/12/14 10:48:20;;;;;;;39.67;27.97;;;;;;;-0.58;100.00;94906.88;4967349;28;20753;-63
2022/12/14 10:50:55;;;;;;;39.13;27.63;;;;;;;-0.66;100.00;94898.59;4972652;28;20177;-63
2022/12/14 10:53:44;;;;;;;42.20;28.67;;;;;;;-1.04;100.00;94893.38;4973060;28;20195;-61
2022/12/14 10:56:19;;;;;;;38.37;29.13;;;;;;;-0.52;100.00;94888.06;4975029;28;20670;-62
2022/12/14 10:59:13;;;;;;;42.27;31.67;;;;;;;-0.71;100.00;94891.50;4974403;28;20207;-62
2022/12/14 11:01:39;;;;;;;39.40;27.77;;;;;;;-0.76;100.00;94883.59;4975010;28;20216;-66
2022/12/14 11:04:13;;;;;;;39.03;28.47;;;;;;;-0.70;100.00;94889.72;4974493;28;20203;-66
2022/12/14 11:06:38;;;;;;;42.20;29.03;;;;;;;-0.66;100.00;94891.66;4974167;28;20562;-69
2022/12/14 11:09:19;;;;;;;46.23;34.53;;;;;;;-0.62;100.00;94890.28;4974164;28;20219;-68
2022/12/14 11:11:45;;;;;;;39.83;27.13;;;;;;;-0.70;100.00;94903.38;4963109;28;20249;-62
2022/12/14 11:14:16;;;;;;;39.20;28.07;;;;;;;-0.65;100.00;94898.41;4973554;28;20173;-62
2022/12/14 11:16:41;;;;;;;39.07;27.87;;;;;;;-0.42;100.00;94892.75;4972019;28;20180;-62
2022/12/14 11:19:18;;;;;;;40.23;27.93;;;;;;;-0.35;100.00;94885.81;4973024;28;20207;-68
2022/12/14 11:21:46;;;;;;;38.47;27.90;;;;;;;-0.60;100.00;94893.44;4973307;28;20815;-63
2022/12/14 11:24:23;;;;;;;39.23;27.63;;;;;;;-0.27;100.00;94882.97;4973573;28;20179;-65
2022/12/14 11:26:52;;;;;;;44.30;29.07;;;;;;;-0.12;100.00;94883.50;4969768;28;20323;-59
2022/12/14 11:29:23;;;;;;;41.13;28.83;;;;;;;-0.20;100.00;94888.88;4972611;28;20211;-60
2022/12/14 11:31:52;;;;;;;40.03;28.03;;;;;;;-0.11;100.00;94897.16;4965278;28;20235;-60
2022/12/14 11:34:39;;;;;;;42.23;27.87;;;;;;;-0.38;100.00;94893.13;4972548;28;20176;-70
2022/12/14 11:37:23;;;;;;;42.77;27.53;;;;;;;-0.27;100.00;94895.06;4973066;28;20192;-61
2022/12/14 11:39:50;;;;;;;46.77;30.53;;;;;;;0.20;100.00;94888.66;4971780;28;20192;-62
2022/12/14 11:42:18;;;;;;;42.63;28.73;;;;;;;0.20;100.00;94886.88;4973581;28;20614;-59
2022/12/14 11:44:46;;;;;;;42.33;28.87;;;;;;;0.27;100.00;94885.03;4973850;28;20259;-61
2022/12/14 11:47:17;;;;;;;40.50;29.43;;;;;;;0.05;100.00;94895.88;4972974;28;20181;-62
2022/12/14 11:49:47;;;;;;;45.93;32.43;;;;;;;0.36;100.00;94875.25;4971651;28;20221;-59
2022/12/14 11:52:19;;;;;;;41.70;28.23;;;;;;;0.31;100.00;94875.88;4973749;28;20173;-64
2022/12/14 11:54:46;;;;;;;42.20;28.63;;;;;;;0.39;100.00;94875.59;4973707;28;20612;-58
2022/12/14 11:57:11;;;;;;;42.80;28.93;;;;;;;0.57;100.00;94880.03;4973905;28;20185;-60
2022/12/14 11:59:47;;;;;;;40.93;29.13;;;;;;;0.33;100.00;94873.09;4973482;28;20250;-60